Decoded Metar for KMHE (MITCHELL in SD, USA) (IATA:MHE) | Meteo·Mobile Aviation Weather
aviador You're here:

KMHE Decoded Metar

MITCHELL in SD, USA
Report Time2019-02-16 16:53:00
UTC Time2019-02-16 17:35:13
Flight Rules mvfr MVFR
Wind120° at 14 kt
W.Decomp.*RWY 12: 13.9 kt HW 1.7 kt LCW
RWY 17: 7.6 kt HW 11.7 kt LCW
W.Rank120° ranks 17
Current wind is above 120° avg. (7.9)
Visibility9999 m
Phenomena:N/A
Clouds:Overcast 029 Hf
Expected CloudBase > 2,000 ft AGL from Temp-Dew spread
Ceiling2,900 ft
Temp-9°C (ISA -21)
Dew Point-14°C (67% RH)
AAT-17.4°C
QNH1015 hPa
Density Alt-1,394 ft
Elevation1,302 ft
Report Wrong Elevation
Raw Report
KMHE 161653Z AUTO 12014KT 10SM OVC029 M09/M14 A2997 RMK AO2 SLP176
T10891139=

Extra information for KMHE:More info

Metar Taf Metar & Taf Last 4 Metars F.Rules Stats Wind Profile Meteogram Temp Stats Airport Information Weather charts Add Link Nearby VenuesMetar ALERT Operation Metar Decoded Social comments

AIRNAV info for KMHE